TimeAKST,TemperatureF,Dew PointF,Humidity,Sea Level PressureIn,VisibilityMPH,Wind Direction,Wind SpeedMPH,Gust SpeedMPH,PrecipitationIn,Events,Conditions,WindDirDegrees,DateUTC
12:53 AM,21.9,17.1,82,29.27,10.0,North,9.2,-,0.00,,Overcast,10,2014-01-09 09:53:00
1:00 AM,21.2,17.6,86,29.26,10.0,North,5.8,-,N/A,,Overcast,350,2014-01-09 10:00:00
1:53 AM,21.9,16.0,78,29.27,10.0,NNE,11.5,-,N/A,,Overcast,20,2014-01-09 10:53:00
2:53 AM,21.0,16.0,81,29.28,10.0,NE,15.0,-,N/A,,Overcast,40,2014-01-09 11:53:00
3:53 AM,21.0,17.1,85,29.28,4.0,NNE,15.0,-,0.00,Snow,Light Snow,30,2014-01-09 12:53:00
4:09 AM,19.4,15.8,86,29.28,2.5,NE,13.8,-,0.00,Snow,Light Snow,40,2014-01-09 13:09:00
4:15 AM,19.4,15.8,86,29.28,3.0,NNE,15.0,-,0.00,Snow,Light Snow,30,2014-01-09 13:15:00
4:23 AM,21.2,17.6,86,29.28,4.0,NNE,12.7,-,0.01,Snow,Light Snow,30,2014-01-09 13:23:00
4:40 AM,21.2,17.6,86,29.28,2.0,NNE,15.0,-,0.01,Snow,Light Snow,30,2014-01-09 13:40:00
4:53 AM,19.9,17.1,89,29.29,2.5,NNE,15.0,-,0.01,Snow,Light Snow,20,2014-01-09 13:53:00
5:06 AM,21.2,17.6,86,29.28,4.0,NNE,13.8,-,0.00,Snow,Light Snow,30,2014-01-09 14:06:00
5:29 AM,19.4,17.6,93,29.29,2.0,NE,15.0,-,0.00,Snow,Light Snow,40,2014-01-09 14:29:00
5:49 AM,19.4,15.8,86,29.29,3.0,NE,15.0,-,0.00,Snow,Light Snow,40,2014-01-09 14:49:00
5:53 AM,19.9,16.0,85,29.29,3.0,NE,16.1,-,0.00,Snow,Light Snow,40,2014-01-09 14:53:00
6:18 AM,19.4,15.8,86,29.29,3.0,NNE,12.7,-,0.00,Snow,Light Snow,30,2014-01-09 15:18:00
6:53 AM,19.9,15.1,81,29.30,5.0,NE,16.1,-,0.00,Snow,Light Snow,40,2014-01-09 15:53:00
7:53 AM,19.9,16.0,85,29.31,3.0,NNE,17.3,-,0.00,Snow,Light Snow,30,2014-01-09 16:53:00
8:53 AM,19.9,15.1,81,29.31,6.0,NE,17.3,-,0.00,Snow,Light Snow,40,2014-01-09 17:53:00
9:51 AM,19.4,15.8,86,29.32,2.5,NE,13.8,-,0.00,Snow,Light Snow,40,2014-01-09 18:51:00
9:53 AM,19.9,15.1,81,29.33,3.0,NE,16.1,-,0.00,Snow,Light Snow,40,2014-01-09 18:53:00
10:00 AM,19.4,15.8,86,29.32,2.5,NNE,15.0,-,0.00,Snow,Light Snow,30,2014-01-09 19:00:00
10:53 AM,19.9,15.1,81,29.34,3.0,NNE,13.8,-,0.00,Snow,Light Snow,30,2014-01-09 19:53:00
11:53 AM,19.9,15.1,81,29.36,3.0,NE,15.0,-,0.00,Snow,Light Snow,40,2014-01-09 20:53:00
12:51 PM,19.4,15.8,86,29.38,3.0,NNE,11.5,-,0.00,Snow,Light Snow,30,2014-01-09 21:51:00
12:53 PM,19.9,17.1,89,29.39,3.0,NNE,12.7,-,0.00,Snow,Light Snow,30,2014-01-09 21:53:00
1:06 PM,19.4,15.8,86,29.38,1.8,NNE,16.1,-,0.00,Snow,Light Snow,30,2014-01-09 22:06:00
1:21 PM,19.4,17.6,93,29.38,2.5,NE,15.0,-,0.00,Snow,Light Snow,40,2014-01-09 22:21:00
2:53 PM,19.9,16.0,85,29.41,10.0,NE,12.7,-,0.00,,Overcast,40,2014-01-09 23:53:00
3:53 PM,19.9,15.1,81,29.42,7.0,NNE,8.1,-,0.00,Snow,Light Snow,20,2014-01-10 00:53:00
4:53 PM,19.9,15.1,81,29.42,3.0,NNE,9.2,-,0.00,Snow,Light Snow,30,2014-01-10 01:53:00
5:53 PM,19.9,15.1,81,29.44,5.0,NNE,9.2,-,0.00,Snow,Light Snow,30,2014-01-10 02:53:00
6:53 PM,19.9,14.0,78,29.46,6.0,North,10.4,-,0.00,Snow,Light Snow,10,2014-01-10 03:53:00
7:53 PM,19.9,14.0,78,29.47,6.0,NNE,10.4,-,0.00,Snow,Light Snow,20,2014-01-10 04:53:00
8:53 PM,18.0,12.9,81,29.49,6.0,NNE,9.2,-,0.00,Snow,Light Snow,30,2014-01-10 05:53:00
9:53 PM,17.1,12.0,81,29.50,7.0,North,8.1,-,0.00,Snow,Light Snow,10,2014-01-10 06:53:00
10:51 PM,17.6,12.2,79,29.52,4.0,NNE,10.4,-,0.00,Snow,Light Snow,30,2014-01-10 07:51:00
10:53 PM,17.1,12.0,81,29.52,4.0,NNE,11.5,-,0.00,Snow,Light Snow,30,2014-01-10 07:53:00
11:53 PM,17.1,12.0,81,29.55,7.0,NNE,8.1,-,0.00,Snow,Light Snow,30,2014-01-10 08:53:00